Time;durP1;ratioP1;P1;durP2;ratioP2;P2;SDS_P1;SDS_P2;PMS_P1;PMS_P2;Temp;Humidity;BMP_temperature;BMP_pressure;BME280_temperature;BME280_humidity;BME280_pressure;Samples;Min_cycle;Max_cycle;Signal;HPM_P1;HPM_P2
2023/08/17 00:01:09;;;;;;;;;10.25;8.00;;;;;-146.67;100.00;57155.34;5044981;28;10102;-75
2023/08/17 00:03:35;;;;;;;;;10.00;8.00;;;;;-146.67;100.00;57155.34;5076832;28;9696;-74
2023/08/17 00:06:00;;;;;;;;;10.25;10.25;;;;;-146.67;100.00;57155.34;5065577;28;8825;-74
2023/08/17 00:08:25;;;;;;;;;10.00;9.50;;;;;-146.67;100.00;57155.34;5083434;28;8794;-74
2023/08/17 00:10:51;;;;;;;;;9.25;9.00;;;;;-146.67;100.00;57155.34;5083384;28;8883;-74
2023/08/17 00:13:16;;;;;;;;;9.00;8.00;;;;;-146.67;100.00;57155.34;5083861;28;8938;-74
2023/08/17 00:15:42;;;;;;;;;10.00;10.00;;;;;-146.67;100.00;57155.34;5064810;28;9611;-74
2023/08/17 00:18:07;;;;;;;;;8.00;8.00;;;;;-146.67;100.00;57155.34;5070915;28;8896;-74
2023/08/17 00:20:33;;;;;;;;;9.25;8.50;;;;;-146.67;100.00;57155.34;5062265;28;8842;-74
2023/08/17 00:22:58;;;;;;;;;9.00;9.00;;;;;-146.67;100.00;57155.34;5054389;28;8821;-74
2023/08/17 00:25:23;;;;;;;;;11.75;8.00;;;;;-146.67;100.00;57155.34;5063190;28;8883;-74
2023/08/17 00:27:49;;;;;;;;;9.25;9.25;;;;;-146.67;100.00;57155.34;5062275;28;8793;-75
2023/08/17 00:30:14;;;;;;;;;8.75;8.75;;;;;-146.67;100.00;57155.34;5044759;28;9961;-74
2023/08/17 00:32:40;;;;;;;;;10.50;10.50;;;;;-146.67;100.00;57155.34;5044694;28;8850;-74
2023/08/17 00:35:06;;;;;;;;;11.75;10.00;;;;;-146.67;100.00;57155.34;5062917;28;8846;-74
2023/08/17 00:37:31;;;;;;;;;7.75;7.75;;;;;-146.67;100.00;57155.34;5062512;28;8910;-74
2023/08/17 00:39:56;;;;;;;;;7.75;6.50;;;;;-146.67;100.00;57155.34;5044544;28;10436;-74
2023/08/17 00:42:22;;;;;;;;;7.75;5.50;;;;;-146.67;100.00;57155.34;5061964;28;8914;-75
2023/08/17 00:44:47;;;;;;;;;9.00;7.33;;;;;-146.67;100.00;57155.34;5061941;28;8800;-74
2023/08/17 00:47:14;;;;;;;;;9.75;9.75;;;;;-146.67;100.00;57155.34;5062818;28;8788;-74
2023/08/17 00:49:39;;;;;;;;;12.00;10.25;;;;;-146.67;100.00;57155.34;5062186;28;8854;-74
2023/08/17 00:52:05;;;;;;;;;6.50;5.50;;;;;-146.67;100.00;57155.34;5047460;28;9583;-75
2023/08/17 00:54:31;;;;;;;;;8.00;8.00;;;;;-146.67;100.00;57155.34;5082655;28;8797;-74
2023/08/17 00:56:56;;;;;;;;;8.00;8.00;;;;;-146.67;100.00;57155.34;5082212;28;8864;-74
2023/08/17 00:59:23;;;;;;;;;15.25;9.25;;;;;-146.67;100.00;57155.34;5074995;28;8838;-74
2023/08/17 01:01:49;;;;;;;;;9.00;8.75;;;;;-146.67;100.00;57155.34;5064301;28;8770;-74
2023/08/17 01:04:14;;;;;;;;;9.00;8.00;;;;;-146.67;100.00;57155.34;5082203;28;9613;-74
2023/08/17 01:06:40;;;;;;;;;11.00;9.00;;;;;-146.67;100.00;57155.34;5081018;28;10415;-74
2023/08/17 01:09:06;;;;;;;;;10.00;8.50;;;;;-146.67;100.00;57155.34;5082754;28;8825;-74
2023/08/17 01:11:40;;;;;;;;;4.25;3.50;;;;;-146.67;100.00;57155.34;5063020;28;8791;-74
2023/08/17 01:14:18;;;;;;;;;7.50;6.50;;;;;-146.67;100.00;57155.34;5082671;28;9901;-74
2023/08/17 01:16:52;;;;;;;;;9.50;9.00;;;;;-146.67;100.00;57155.34;5082820;28;9651;-74
2023/08/17 01:19:28;;;;;;;;;8.00;7.25;;;;;-146.67;100.00;57155.34;5082325;28;9873;-74
2023/08/17 01:22:17;;;;;;;;;8.25;8.00;;;;;-146.67;100.00;57155.34;5082305;28;9670;-74
2023/08/17 01:24:43;;;;;;;;;9.50;9.50;;;;;-146.67;100.00;57155.34;5082803;28;9718;-74
2023/08/17 01:27:08;;;;;;;;;8.00;7.25;;;;;-146.67;100.00;57155.34;5081990;28;9788;-74
2023/08/17 01:29:34;;;;;;;;;9.00;9.00;;;;;-146.67;100.00;57155.34;5082486;28;8779;-74
2023/08/17 01:32:25;;;;;;;;;14.25;9.75;;;;;-146.67;100.00;57155.34;5064235;28;8826;-74
2023/08/17 01:34:58;;;;;;;;;12.25;10.75;;;;;-146.67;100.00;57155.34;5077416;28;9838;-74
2023/08/17 01:37:28;;;;;;;;;9.50;9.50;;;;;-146.67;100.00;57155.34;5063992;28;9777;-74
2023/08/17 01:39:56;;;;;;;;;10.50;10.00;;;;;-146.67;100.00;57155.34;5082316;28;9935;-74
2023/08/17 01:42:23;;;;;;;;;9.75;9.75;;;;;-146.67;100.00;57155.34;5080489;28;9925;-74
2023/08/17 01:44:48;;;;;;;;;6.75;6.75;;;;;-146.67;100.00;57155.34;5064495;28;9969;-74
2023/08/17 01:47:14;;;;;;;;;12.25;12.25;;;;;-146.67;100.00;57155.34;5082027;28;9910;-74
2023/08/17 01:49:40;;;;;;;;;10.25;9.25;;;;;-146.67;100.00;57155.34;5081518;28;8797;-74
2023/08/17 01:52:05;;;;;;;;;9.50;8.50;;;;;-146.67;100.00;57155.34;5080276;28;8829;-74
2023/08/17 01:54:31;;;;;;;;;13.00;9.50;;;;;-146.67;100.00;57155.34;5068821;28;8834;-74
2023/08/17 01:56:56;;;;;;;;;15.25;11.00;;;;;-146.67;100.00;57155.34;5065217;28;8883;-74
2023/08/17 01:59:21;;;;;;;;;11.75;11.25;;;;;-146.67;100.00;57155.34;5065597;28;8795;-74
2023/08/17 02:01:47;;;;;;;;;9.75;9.75;;;;;-146.67;100.00;57155.34;5065346;28;8866;-74
2023/08/17 02:04:12;;;;;;;;;12.25;10.75;;;;;-146.67;100.00;57155.34;5047214;28;8815;-74
2023/08/17 02:06:38;;;;;;;;;12.00;12.00;;;;;-146.67;100.00;57155.34;5065381;28;8822;-74
2023/08/17 02:09:03;;;;;;;;;10.50;10.50;;;;;-146.67;100.00;57155.34;5047116;28;10068;-74
2023/08/17 02:11:28;;;;;;;;;13.75;13.00;;;;;-146.67;100.00;57155.34;5046934;28;8838;-74
2023/08/17 02:13:54;;;;;;;;;13.75;12.00;;;;;-146.67;100.00;57155.34;5065493;28;8796;-74
2023/08/17 02:16:19;;;;;;;;;14.50;13.50;;;;;-146.67;100.00;57155.34;5065071;28;9604;-74
2023/08/17 02:18:44;;;;;;;;;15.75;15.50;;;;;-146.67;100.00;57155.34;5065580;28;8795;-74
2023/08/17 02:21:10;;;;;;;;;13.50;11.75;;;;;-146.67;100.00;57155.34;5046105;28;8803;-74
2023/08/17 02:23:35;;;;;;;;;13.75;12.75;;;;;-146.67;100.00;57155.34;5047010;28;8827;-74
2023/08/17 02:26:00;;;;;;;;;14.25;11.75;;;;;-146.67;100.00;57155.34;5046982;28;8803;-74
2023/08/17 02:28:26;;;;;;;;;12.50;10.00;;;;;-146.67;100.00;57155.34;5046741;28;9930;-74
2023/08/17 02:30:56;;;;;;;;;12.75;11.50;;;;;-146.67;100.00;57155.34;5065014;28;8869;-75
2023/08/17 02:33:22;;;;;;;;;11.50;10.50;;;;;-146.67;100.00;57155.34;5065018;28;8910;-74
2023/08/17 02:35:51;;;;;;;;;12.00;12.00;;;;;-146.67;100.00;57155.34;5065106;28;9983;-74
2023/08/17 02:38:17;;;;;;;;;14.00;12.25;;;;;-146.67;100.00;57155.34;5064627;28;8803;-74
2023/08/17 02:40:43;;;;;;;;;16.00;13.00;;;;;-146.67;100.00;57155.34;5065218;28;9969;-74
2023/08/17 02:43:09;;;;;;;;;11.25;11.25;;;;;-146.67;100.00;57155.34;5046683;28;10243;-74
2023/08/17 02:45:34;;;;;;;;;16.50;12.00;;;;;-146.67;100.00;57155.34;5064825;28;8807;-74
2023/08/17 02:48:00;;;;;;;;;11.25;11.25;;;;;-146.67;100.00;57155.34;5064895;28;8787;-74
2023/08/17 02:50:26;;;;;;;;;15.00;10.50;;;;;-146.67;100.00;57155.34;5064164;28;8811;-74
2023/08/17 02:52:51;;;;;;;;;12.50;12.50;;;;;-146.67;100.00;57155.34;5055096;28;8853;-75
2023/08/17 02:55:16;;;;;;;;;13.25;11.50;;;;;-146.67;100.00;57155.34;5064611;28;8804;-74
2023/08/17 02:57:42;;;;;;;;;13.25;9.50;;;;;-146.67;100.00;57155.34;5064668;28;8800;-74
2023/08/17 03:00:08;;;;;;;;;13.75;9.50;;;;;-146.67;100.00;57155.34;5064642;28;8795;-74
2023/08/17 03:02:34;;;;;;;;;13.75;12.00;;;;;-146.67;100.00;57155.34;5046356;28;8866;-74
2023/08/17 03:04:59;;;;;;;;;14.00;10.00;;;;;-146.67;100.00;57155.34;5046661;28;9930;-74
2023/08/17 03:07:25;;;;;;;;;12.00;12.00;;;;;-146.67;100.00;57155.34;5063034;28;8914;-74
2023/08/17 03:09:50;;;;;;;;;13.25;11.25;;;;;-146.67;100.00;57155.34;5064677;28;8803;-74
2023/08/17 03:12:16;;;;;;;;;15.75;11.00;;;;;-146.67;100.00;57155.34;5064263;28;8819;-74
2023/08/17 03:14:41;;;;;;;;;13.75;11.25;;;;;-146.67;100.00;57155.34;5046276;28;8803;-74
2023/08/17 03:17:06;;;;;;;;;15.00;11.00;;;;;-146.67;100.00;57155.34;5064395;28;8791;-74
2023/08/17 03:19:32;;;;;;;;;11.50;8.00;;;;;-146.67;100.00;57155.34;5063797;28;8842;-74
2023/08/17 03:21:57;;;;;;;;;14.50;10.50;;;;;-146.67;100.00;57155.34;5063544;28;9625;-74
2023/08/17 03:24:22;;;;;;;;;10.75;10.50;;;;;-146.67;100.00;57155.34;5046295;28;8818;-74
2023/08/17 03:26:48;;;;;;;;;14.00;13.00;;;;;-146.67;100.00;57155.34;5064332;28;8829;-74
2023/08/17 03:29:13;;;;;;;;;15.25;11.25;;;;;-146.67;100.00;57155.34;5064428;28;8881;-74
2023/08/17 03:31:39;;;;;;;;;13.50;11.25;;;;;-146.67;100.00;57155.34;5063900;28;8807;-74
2023/08/17 03:34:04;;;;;;;;;15.75;12.00;;;;;-146.67;100.00;57155.34;5064393;28;8830;-74
2023/08/17 03:36:29;;;;;;;;;14.00;12.00;;;;;-146.67;100.00;57155.34;5063454;28;8819;-74
2023/08/17 03:38:55;;;;;;;;;12.00;10.75;;;;;-146.67;100.00;57155.34;5063775;28;8883;-74
2023/08/17 03:41:23;;;;;;;;;12.75;12.75;;;;;-146.67;100.00;57155.34;5064119;28;8830;-74
2023/08/17 03:43:49;;;;;;;;;13.25;11.00;;;;;-146.67;100.00;57155.34;5045620;28;8925;-74
2023/08/17 03:46:14;;;;;;;;;15.50;12.00;;;;;-146.67;100.00;57155.34;5063916;28;10313;-75
2023/08/17 03:48:39;;;;;;;;;14.50;12.75;;;;;-146.67;100.00;57155.34;5063955;28;8881;-74
2023/08/17 03:51:05;;;;;;;;;12.00;10.75;;;;;-146.67;100.00;57155.34;5062910;28;8784;-74
2023/08/17 03:53:30;;;;;;;;;12.75;11.50;;;;;-146.67;100.00;57155.34;5062883;28;8869;-73
2023/08/17 03:55:56;;;;;;;;;18.75;13.75;;;;;-146.67;100.00;57155.34;5063767;28;8795;-74
2023/08/17 03:58:21;;;;;;;;;15.50;12.75;;;;;-146.67;100.00;57155.34;5063613;28;8775;-74
2023/08/17 04:00:53;;;;;;;;;14.75;13.75;;;;;-146.67;100.00;57155.34;5063566;28;8862;-74
2023/08/17 04:03:19;;;;;;;;;17.50;13.50;;;;;-146.67;100.00;57155.34;5045628;28;8862;-74
2023/08/17 04:05:44;;;;;;;;;15.00;14.00;;;;;-146.67;100.00;57155.34;5063044;28;10281;-74
2023/08/17 04:08:10;;;;;;;;;15.25;13.00;;;;;-146.67;100.00;57155.34;5078532;28;8827;-74
2023/08/17 04:10:35;;;;;;;;;14.00;12.25;;;;;-146.67;100.00;57155.34;5063860;28;8803;-74
2023/08/17 04:13:01;;;;;;;;;13.75;12.75;;;;;-146.67;100.00;57155.34;5063285;28;8822;-74
2023/08/17 04:15:26;;;;;;;;;14.50;13.25;;;;;-146.67;100.00;57155.34;5063390;28;9570;-75
2023/08/17 04:17:51;;;;;;;;;15.75;14.50;;;;;-146.67;100.00;57155.34;5045025;28;8799;-76
2023/08/17 04:20:22;;;;;;;;;14.00;11.25;;;;;-146.67;100.00;57155.34;5062576;28;9551;-74
2023/08/17 04:22:48;;;;;;;;;17.00;14.00;;;;;-146.67;100.00;57155.34;5057806;28;8766;-74
2023/08/17 04:25:13;;;;;;;;;17.00;17.00;;;;;-146.67;100.00;57155.34;5045127;28;10397;-74
2023/08/17 04:27:39;;;;;;;;;15.00;15.00;;;;;-146.67;100.00;57155.34;5044854;28;9180;-74
2023/08/17 04:30:05;;;;;;;;;18.50;17.25;;;;;-146.67;100.00;57155.34;5062946;28;8820;-74
2023/08/17 04:32:31;;;;;;;;;17.50;16.00;;;;;-146.67;100.00;57155.34;5044639;28;8786;-75
2023/08/17 04:34:56;;;;;;;;;14.75;14.75;;;;;-146.67;100.00;57155.34;5062530;28;10461;-75
2023/08/17 04:37:22;;;;;;;;;23.00;15.25;;;;;-146.67;100.00;57155.34;5062823;28;9349;-75
2023/08/17 04:39:48;;;;;;;;;14.25;14.25;;;;;-146.67;100.00;57155.34;5062856;28;8836;-75
2023/08/17 04:42:14;;;;;;;;;14.50;13.25;;;;;-146.67;100.00;57155.34;5062625;28;8801;-74
2023/08/17 04:44:39;;;;;;;;;19.00;15.50;;;;;-146.67;100.00;57155.34;5062985;28;10403;-75
2023/08/17 04:47:05;;;;;;;;;14.75;13.75;;;;;-146.67;100.00;57155.34;5044466;28;8833;-74
2023/08/17 04:49:31;;;;;;;;;13.00;13.00;;;;;-146.67;100.00;57155.34;5044059;28;8832;-74
2023/08/17 04:51:56;;;;;;;;;16.25;16.25;;;;;-146.67;100.00;57155.34;5063627;28;8936;-75
2023/08/17 04:54:22;;;;;;;;;16.75;14.75;;;;;-146.67;100.00;57155.34;5064404;28;9869;-74
2023/08/17 04:56:47;;;;;;;;;15.50;15.25;;;;;-146.67;100.00;57155.34;5081408;28;8813;-75
2023/08/17 04:59:12;;;;;;;;;18.25;16.75;;;;;-146.67;100.00;57155.34;5082582;28;8825;-75
2023/08/17 05:01:38;;;;;;;;;16.00;14.75;;;;;-146.67;100.00;57155.34;5081399;28;8787;-75
2023/08/17 05:04:04;;;;;;;;;17.50;15.25;;;;;-146.67;100.00;57155.34;5086990;28;8852;-75
2023/08/17 05:06:30;;;;;;;;;18.50;17.75;;;;;-146.67;100.00;57155.34;5101345;28;8864;-74
2023/08/17 05:08:56;;;;;;;;;21.25;17.00;;;;;-146.67;100.00;57155.34;5101920;28;10379;-74
2023/08/17 05:11:21;;;;;;;;;14.75;14.75;;;;;-146.67;100.00;57155.34;5102068;28;8881;-74
2023/08/17 05:13:47;;;;;;;;;19.75;16.50;;;;;-146.67;100.00;57155.34;5083986;28;10353;-75
2023/08/17 05:16:12;;;;;;;;;16.00;16.00;;;;;-146.67;100.00;57155.34;5101054;28;8823;-75
2023/08/17 05:18:37;;;;;;;;;19.50;15.00;;;;;-146.67;100.00;57155.34;5101212;28;9640;-75
2023/08/17 05:21:03;;;;;;;;;20.00;17.50;;;;;-146.67;100.00;57155.34;5101805;28;8791;-75
2023/08/17 05:23:28;;;;;;;;;21.00;15.75;;;;;-146.67;100.00;57155.34;5102539;28;8893;-74
2023/08/17 05:25:54;;;;;;;;;18.25;16.50;;;;;-146.67;100.00;57155.34;5103058;28;8801;-75
2023/08/17 05:28:20;;;;;;;;;20.00;15.75;;;;;-146.67;100.00;57155.34;5101268;28;8895;-75
2023/08/17 05:30:46;;;;;;;;;20.75;16.25;;;;;-146.67;100.00;57155.34;5102088;28;9622;-76
2023/08/17 05:33:11;;;;;;;;;21.25;16.00;;;;;-146.67;100.00;57155.34;5083680;28;9948;-76
2023/08/17 05:35:37;;;;;;;;;23.25;17.50;;;;;-146.67;100.00;57155.34;5084166;28;9970;-76
2023/08/17 05:38:02;;;;;;;;;16.75;15.50;;;;;-146.67;100.00;57155.34;5083779;28;8784;-74
2023/08/17 05:40:30;;;;;;;;;23.25;19.25;;;;;-146.67;100.00;57155.34;5102485;28;8822;-77
2023/08/17 05:42:56;;;;;;;;;26.00;20.00;;;;;-146.67;100.00;57155.34;5102224;28;8819;-77
2023/08/17 05:45:21;;;;;;;;;24.00;21.50;;;;;-146.67;100.00;57155.34;5102327;28;10259;-77
2023/08/17 05:47:46;;;;;;;;;27.50;24.00;;;;;-146.67;100.00;57155.34;5102155;28;8792;-77
2023/08/17 05:50:12;;;;;;;;;24.75;19.00;;;;;-146.67;100.00;57155.34;5100134;28;8930;-77
2023/08/17 05:52:37;;;;;;;;;22.00;19.50;;;;;-146.67;100.00;57155.34;5083434;28;9885;-77
2023/08/17 05:55:03;;;;;;;;;28.25;22.50;;;;;-146.67;100.00;57155.34;5083063;28;8848;-77
2023/08/17 05:57:28;;;;;;;;;25.00;19.00;;;;;-146.67;100.00;57155.34;5081346;28;8837;-77
2023/08/17 05:59:53;;;;;;;;;24.75;20.00;;;;;-146.67;100.00;57155.34;5079971;28;9193;-77
2023/08/17 06:02:19;;;;;;;;;25.00;23.00;;;;;-146.67;100.00;57155.34;5080142;28;8829;-78
2023/08/17 06:04:44;;;;;;;;;22.25;18.75;;;;;-146.67;100.00;57155.34;5079272;28;9532;-78
2023/08/17 06:07:10;;;;;;;;;22.75;20.50;;;;;-146.67;100.00;57155.34;5079715;28;8861;-78
2023/08/17 06:09:35;;;;;;;;;22.25;20.50;;;;;-146.67;100.00;57155.34;5081745;28;8866;-78
2023/08/17 06:12:00;;;;;;;;;24.00;19.75;;;;;-146.67;100.00;57155.34;5087086;28;8836;-78
2023/08/17 06:14:26;;;;;;;;;19.00;16.75;;;;;-146.67;100.00;57155.34;5082910;28;9407;-78
2023/08/17 06:16:51;;;;;;;;;22.25;20.00;;;;;-146.67;100.00;57155.34;5095410;28;8831;-78
2023/08/17 06:19:16;;;;;;;;;25.50;21.75;;;;;-146.67;100.00;57155.34;5080589;28;8912;-78
2023/08/17 06:21:42;;;;;;;;;19.00;18.50;;;;;-146.67;100.00;57155.34;5062837;28;10022;-78
2023/08/17 06:24:07;;;;;;;;;24.25;19.00;;;;;-146.67;100.00;57155.34;5081083;28;8920;-79
2023/08/17 06:26:33;;;;;;;;;22.50;19.50;;;;;-146.67;100.00;57155.34;5062835;28;8798;-78
2023/08/17 06:28:58;;;;;;;;;28.75;24.00;;;;;-146.67;100.00;57155.34;5062999;28;8813;-78
2023/08/17 06:31:27;;;;;;;;;27.25;22.75;;;;;-146.67;100.00;57155.34;5062316;28;10019;-78
2023/08/17 06:33:55;;;;;;;;;24.00;21.50;;;;;-146.67;100.00;57155.34;5081469;28;8724;-83
2023/08/17 06:36:21;;;;;;;;;21.75;19.00;;;;;-146.67;100.00;57155.34;5062292;28;10052;-78
2023/08/17 06:38:47;;;;;;;;;22.50;17.50;;;;;-146.67;100.00;57155.34;5062366;28;10046;-77
2023/08/17 06:41:12;;;;;;;;;26.25;20.50;;;;;-146.67;100.00;57155.34;5096815;28;10333;-77
2023/08/17 06:43:38;;;;;;;;;21.00;20.50;;;;;-146.67;100.00;57155.34;5081498;28;10169;-75
2023/08/17 06:46:03;;;;;;;;;22.25;21.00;;;;;-146.67;100.00;57155.34;5083890;28;8803;-77
2023/08/17 06:48:31;;;;;;;;;20.25;15.50;;;;;-146.67;100.00;57155.34;5083623;28;8876;-80
2023/08/17 06:50:57;;;;;;;;;26.25;24.75;;;;;-146.67;100.00;57155.34;5083128;28;9716;-77
2023/08/17 06:53:22;;;;;;;;;25.25;20.50;;;;;-146.67;100.00;57155.34;5083375;28;10203;-76
2023/08/17 06:55:50;;;;;;;;;23.50;21.75;;;;;-146.67;100.00;57155.34;5064574;28;8820;-78
2023/08/17 06:58:16;;;;;;;;;19.75;19.75;;;;;-146.67;100.00;57155.34;5065569;28;8741;-77
2023/08/17 07:00:46;;;;;;;;;22.00;21.50;;;;;-146.67;100.00;57155.34;5083139;28;10361;-77
2023/08/17 07:03:11;;;;;;;;;32.00;24.50;;;;;-146.67;100.00;57155.34;5084084;28;8733;-77
2023/08/17 07:05:37;;;;;;;;;23.00;20.00;;;;;-146.67;100.00;57155.34;5094826;28;10067;-77
2023/08/17 07:08:03;;;;;;;;;28.75;24.50;;;;;-146.67;100.00;57155.34;5104551;28;8795;-77
2023/08/17 07:10:28;;;;;;;;;28.50;25.00;;;;;-146.67;100.00;57155.34;5086284;28;9933;-78
2023/08/17 07:12:54;;;;;;;;;27.00;23.75;;;;;-146.67;100.00;57155.34;5080964;28;8841;-77
2023/08/17 07:15:19;;;;;;;;;18.50;17.50;;;;;-146.67;100.00;57155.34;5083436;28;8915;-77
2023/08/17 07:17:45;;;;;;;;;26.00;23.25;;;;;-146.67;100.00;57155.34;5065481;28;9770;-78
2023/08/17 07:20:14;;;;;;;;;24.75;21.50;;;;;-146.67;100.00;57155.34;5065326;28;9930;-77
2023/08/17 07:22:39;;;;;;;;;23.75;21.25;;;;;-146.67;100.00;57155.34;5083456;28;8962;-77
2023/08/17 07:25:04;;;;;;;;;23.25;20.00;;;;;-146.67;100.00;57155.34;5065924;28;10085;-77
2023/08/17 07:27:30;;;;;;;;;26.75;20.25;;;;;-146.67;100.00;57155.34;5065526;28;8845;-77
2023/08/17 07:29:55;;;;;;;;;32.50;25.75;;;;;-146.67;100.00;57155.34;5065319;28;9933;-77
2023/08/17 07:32:21;;;;;;;;;22.50;22.25;;;;;-146.67;100.00;57155.34;5083672;28;8801;-77
2023/08/17 07:34:47;;;;;;;;;21.25;18.75;;;;;-146.67;100.00;57155.34;5065638;28;8805;-77
2023/08/17 07:37:13;;;;;;;;;22.00;19.00;;;;;-146.67;100.00;57155.34;5065161;28;10095;-77
2023/08/17 07:39:50;;;;;;;;;34.75;20.50;;;;;-146.67;100.00;57155.34;5083701;28;8726;-77
2023/08/17 07:42:16;;;;;;;;;25.00;25.00;;;;;-146.67;100.00;57155.34;5065392;28;10234;-77
2023/08/17 07:44:42;;;;;;;;;34.00;25.25;;;;;-146.67;100.00;57155.34;5082974;28;9960;-77
2023/08/17 07:47:11;;;;;;;;;27.25;23.50;;;;;-146.67;100.00;57155.34;5075321;28;8770;-78
2023/08/17 07:49:40;;;;;;;;;21.75;20.50;;;;;-146.67;100.00;57155.34;5083027;28;8837;-77
2023/08/17 07:52:06;;;;;;;;;23.75;22.50;;;;;-146.67;100.00;57155.34;5063807;28;10032;-77
2023/08/17 07:54:32;;;;;;;;;26.75;23.00;;;;;-146.67;100.00;57155.34;5064861;28;10007;-77
2023/08/17 07:57:02;;;;;;;;;23.00;23.00;;;;;-146.67;100.00;57155.34;5083261;28;9980;-85
2023/08/17 07:59:27;;;;;;;;;31.00;25.50;;;;;-146.67;100.00;57155.34;5083101;28;8777;-90
2023/08/17 08:01:53;;;;;;;;;24.75;22.25;;;;;-146.67;100.00;57155.34;5065259;28;10092;-89
2023/08/17 08:04:18;;;;;;;;;22.50;18.00;;;;;-146.67;100.00;57155.34;5065218;28;9523;-91
2023/08/17 08:06:44;;;;;;;;;25.50;20.75;;;;;-146.67;100.00;57155.34;5065534;28;8804;-92
2023/08/17 08:09:09;;;;;;;;;21.25;20.75;;;;;-146.67;100.00;57155.34;5083096;28;8836;-90
2023/08/17 08:11:34;;;;;;;;;16.75;15.75;;;;;-146.67;100.00;57155.34;5065272;28;8812;-90
2023/08/17 08:14:00;;;;;;;;;24.50;23.25;;;;;-146.67;100.00;57155.34;5081780;28;8817;-89
2023/08/17 08:16:26;;;;;;;;;28.25;22.25;;;;;-146.67;100.00;57155.34;5083124;28;8813;-90
2023/08/17 08:18:51;;;;;;;;;22.25;20.50;;;;;-146.67;100.00;57155.34;5063705;28;10021;-76
2023/08/17 08:21:17;;;;;;;;;22.00;19.75;;;;;-146.67;100.00;57155.34;5063387;28;10171;-81
2023/08/17 08:23:42;;;;;;;;;25.00;23.50;;;;;-146.67;100.00;57155.34;5064416;28;8920;-82
2023/08/17 08:26:08;;;;;;;;;20.00;19.50;;;;;-146.67;100.00;57155.34;5083074;28;8813;-81
2023/08/17 08:28:33;;;;;;;;;29.00;24.75;;;;;-146.67;100.00;57155.34;5064869;28;9829;-80
2023/08/17 08:31:05;;;;;;;;;21.50;18.75;;;;;-146.67;100.00;57155.34;5082352;28;8825;-80
2023/08/17 08:33:31;;;;;;;;;22.50;18.00;;;;;-146.67;100.00;57155.34;5063983;28;8912;-79
2023/08/17 08:35:57;;;;;;;;;21.00;16.75;;;;;-146.67;100.00;57155.34;5065035;28;9818;-79
2023/08/17 08:38:24;;;;;;;;;26.00;22.50;;;;;-146.67;100.00;57155.34;5063291;28;10447;-80
2023/08/17 08:40:50;;;;;;;;;23.25;20.75;;;;;-146.67;100.00;57155.34;5082772;28;8801;-80
2023/08/17 08:43:16;;;;;;;;;25.00;21.50;;;;;-146.67;100.00;57155.34;5083046;28;9766;-79
2023/08/17 08:45:44;;;;;;;;;23.00;20.75;;;;;-146.67;100.00;57155.34;5064960;28;10002;-79
2023/08/17 08:48:11;;;;;;;;;24.25;20.75;;;;;-146.67;100.00;57155.34;5082747;28;8776;-79
2023/08/17 08:50:40;;;;;;;;;20.50;18.00;;;;;-146.67;100.00;57155.34;5064239;28;9823;-80
2023/08/17 08:53:13;;;;;;;;;22.75;18.75;;;;;-146.67;100.00;57155.34;5063430;28;10052;-80
2023/08/17 08:55:55;;;;;;;;;26.75;22.50;;;;;-146.67;100.00;57155.34;5082599;28;9954;-80
2023/08/17 08:58:21;;;;;;;;;20.50;17.75;;;;;-146.67;100.00;57155.34;5082830;28;10192;-80
2023/08/17 09:00:49;;;;;;;;;25.75;22.00;;;;;-146.67;100.00;57155.34;5064557;28;9887;-80
2023/08/17 09:03:17;;;;;;;;;20.25;20.25;;;;;-146.67;100.00;57155.34;5081010;28;10003;-80
2023/08/17 09:05:47;;;;;;;;;20.00;18.50;;;;;-146.67;100.00;57155.34;5063677;28;9729;-80
2023/08/17 09:08:14;;;;;;;;;38.75;34.25;;;;;-146.67;100.00;57155.34;5080415;28;10381;-80
2023/08/17 09:10:41;;;;;;;;;22.50;20.00;;;;;-146.67;100.00;57155.34;5082518;28;10532;-80
2023/08/17 09:13:06;;;;;;;;;28.00;23.25;;;;;-146.67;100.00;57155.34;5064235;28;9995;-80
2023/08/17 09:15:32;;;;;;;;;25.00;19.75;;;;;-146.67;100.00;57155.34;5064660;28;10919;-80
2023/08/17 09:17:57;;;;;;;;;25.25;20.00;;;;;-146.67;100.00;57155.34;5064640;28;9937;-80
2023/08/17 09:20:42;;;;;;;;;24.25;19.00;;;;;-146.67;100.00;57155.34;5081927;28;8823;-80
2023/08/17 09:23:15;;;;;;;;;21.75;20.25;;;;;-146.67;100.00;57155.34;5063749;28;9790;-80
2023/08/17 09:25:44;;;;;;;;;22.00;19.75;;;;;-146.67;100.00;57155.34;5064145;28;10079;-80
2023/08/17 09:28:11;;;;;;;;;24.00;20.75;;;;;-146.67;100.00;57155.34;5081994;28;10028;-80
2023/08/17 09:31:03;;;;;;;;;26.25;20.00;;;;;-146.67;100.00;57155.34;5064316;28;9900;-80
2023/08/17 09:33:30;;;;;;;;;23.25;21.25;;;;;-146.67;100.00;57155.34;5063910;28;9864;-80
2023/08/17 09:35:57;;;;;;;;;23.50;20.50;;;;;-146.67;100.00;57155.34;5082399;28;9872;-80
2023/08/17 09:38:23;;;;;;;;;22.00;20.25;;;;;-146.67;100.00;57155.34;5063498;28;10055;-80
2023/08/17 09:40:48;;;;;;;;;23.00;19.25;;;;;-146.67;100.00;57155.34;5082053;28;9976;-81
2023/08/17 09:43:15;;;;;;;;;23.75;20.75;;;;;-146.67;100.00;57155.34;5063933;28;8813;-80
2023/08/17 09:45:43;;;;;;;;;19.50;16.75;;;;;-146.67;100.00;57155.34;5064209;28;8865;-80
2023/08/17 09:48:08;;;;;;;;;19.25;17.75;;;;;-146.67;100.00;57155.34;5082281;28;10047;-80
2023/08/17 09:50:35;;;;;;;;;20.00;18.25;;;;;-146.67;100.00;57155.34;5081653;28;9697;-80
2023/08/17 09:53:02;;;;;;;;;19.50;17.75;;;;;-146.67;100.00;57155.34;5081123;28;8861;-80
2023/08/17 09:55:31;;;;;;;;;18.25;14.75;;;;;-146.67;100.00;57155.34;5080139;28;9529;-80
2023/08/17 09:57:57;;;;;;;;;20.25;15.50;;;;;-146.67;100.00;57155.34;5063926;28;9975;-80
2023/08/17 10:00:24;;;;;;;;;16.50;14.50;;;;;-146.67;100.00;57155.34;5063502;28;9814;-80
2023/08/17 10:02:54;;;;;;;;;18.00;16.00;;;;;-146.67;100.00;57155.34;5063628;28;10377;-80
2023/08/17 10:05:20;;;;;;;;;17.75;16.50;;;;;-146.67;100.00;57155.34;5081902;28;9524;-80
2023/08/17 10:07:51;;;;;;;;;20.00;18.75;;;;;-146.67;100.00;57155.34;5079992;28;10226;-80
2023/08/17 10:10:21;;;;;;;;;16.33;15.00;;;;;-146.67;100.00;57155.34;5063664;28;9639;-80
2023/08/17 10:12:56;;;;;;;;;15.00;15.00;;;;;-146.67;100.00;57155.34;5063624;28;9467;-80
2023/08/17 10:15:28;;;;;;;;;19.00;15.33;;;;;-146.67;100.00;57155.34;5082427;28;9324;-80
2023/08/17 10:18:09;;;;;;;;;15.50;14.00;;;;;-146.67;100.00;57155.34;5085131;28;9594;-80
2023/08/17 10:20:37;;;;;;;;;25.50;20.25;;;;;-146.67;100.00;57155.34;5066575;28;9664;-80
2023/08/17 10:23:15;;;;;;;;;20.25;17.25;;;;;-146.67;100.00;57155.34;5084517;28;9659;-80
2023/08/17 10:25:41;;;;;;;;;16.50;15.00;;;;;-146.67;100.00;57155.34;5085155;28;10541;-80
2023/08/17 10:28:09;;;;;;;;;18.50;17.50;;;;;-146.67;100.00;57155.34;5100657;28;10121;-80
2023/08/17 10:30:36;;;;;;;;;20.50;15.25;;;;;-146.67;100.00;57155.34;5066762;28;9604;-80
2023/08/17 10:33:03;;;;;;;;;19.25;17.00;;;;;-146.67;100.00;57155.34;5066891;28;9499;-80
2023/08/17 10:35:30;;;;;;;;;15.67;12.00;;;;;-146.67;100.00;57155.34;5084980;28;9704;-80
2023/08/17 10:37:57;;;;;;;;;20.25;14.25;;;;;-146.67;100.00;57155.34;5066124;28;10367;-80
2023/08/17 10:40:34;;;;;;;;;18.50;14.25;;;;;-146.67;100.00;57155.34;5083567;28;9580;-80
2023/08/17 10:43:00;;;;;;;;;20.00;18.50;;;;;-146.67;100.00;57155.34;5084648;28;9433;-80
2023/08/17 10:45:26;;;;;;;;;17.00;14.67;;;;;-146.67;100.00;57155.34;5066704;28;9796;-80
2023/08/17 10:48:19;;;;;;;;;15.33;12.67;;;;;-146.67;100.00;57155.34;5084823;28;8855;-80
2023/08/17 10:51:00;;;;;;;;;11.00;11.00;;;;;-146.67;100.00;57155.34;5084250;28;9517;-80
2023/08/17 10:53:26;;;;;;;;;13.67;12.67;;;;;-146.67;100.00;57155.34;5082074;28;9454;-80
2023/08/17 10:55:58;;;;;;;;;11.33;10.33;;;;;-146.67;100.00;57155.34;5083608;28;9436;-80
2023/08/17 10:58:23;;;;;;;;;16.50;15.50;;;;;-146.67;100.00;57155.34;5066417;28;10068;-80
2023/08/17 11:00:55;;;;;;;;;16.00;14.00;;;;;-146.67;100.00;57155.34;5084747;28;9490;-80